Terminal Aerodrome Forecast
Issued by NWS

Home | Current Version | Previous Version | Text Only | Print | Product List | Glossary On
Versions: 1 2 3 4 5 6 7 8 9 10 11 12 13
153
FTUS46 KMTR 241720
TAFSJC
TAF
KSJC 241720Z 2418/2518 31005KT P6SM SCT010 SCT150
     FM242000 30012KT P6SM SCT150
     FM250500 30006KT P6SM FEW010
     FM250800 31005KT P6SM BKN010
     FM251100 VRB03KT P6SM OVC010
     FM251700 30004KT P6SM SCT012=

USA.gov is the U.S. government's official web portal to all federal, state and local government web resources and services.